createdAt,value
2019-01-19T00:02:09.612Z,61.40
2019-01-19T00:04:46.994Z,60.57
2019-01-19T00:07:30.544Z,59.93
2019-01-19T00:10:21.028Z,57.37
2019-01-19T00:13:11.859Z,60.87
2019-01-19T00:16:01.456Z,55.07
2019-01-19T00:18:44.865Z,57.63
2019-01-19T00:21:28.278Z,57.73
2019-01-19T00:24:14.558Z,54.00
2019-01-19T00:26:49.081Z,55.10
2019-01-19T00:29:29.479Z,55.77
2019-01-19T00:32:00.996Z,58.50
2019-01-19T00:34:41.495Z,55.47
2019-01-19T00:37:13.011Z,56.87
2019-01-19T00:39:44.839Z,54.13
2019-01-19T00:42:28.099Z,57.93
2019-01-19T00:45:08.134Z,55.23
2019-01-19T00:47:55.784Z,58.87
2019-01-19T00:50:33.410Z,55.70
2019-01-19T00:53:19.797Z,58.77
2019-01-19T00:55:51.333Z,56.60
2019-01-19T00:58:25.674Z,54.87
2019-01-19T01:00:57.184Z,57.80
2019-01-19T01:04:00.213Z,57.90
2019-01-19T01:06:51.027Z,51.67
2019-01-19T01:09:31.446Z,57.33
2019-01-19T01:12:08.914Z,57.53
2019-01-19T01:14:58.378Z,54.87
2019-01-19T01:17:30.200Z,54.43
2019-01-19T01:20:16.679Z,54.43
2019-01-19T01:22:51.156Z,53.33
2019-01-19T01:25:25.290Z,53.23
2019-01-19T01:28:08.452Z,51.23
2019-01-19T01:30:51.739Z,51.57
2019-01-19T01:33:23.447Z,49.97
2019-01-19T01:36:21.707Z,50.70
2019-01-19T01:39:15.538Z,54.47
2019-01-19T01:41:47.052Z,55.00
2019-01-19T01:44:38.843Z,51.37
2019-01-19T01:47:32.557Z,49.07
2019-01-19T01:50:16.043Z,52.17
2019-01-19T01:52:59.322Z,51.87
2019-01-19T01:55:33.628Z,52.53
2019-01-19T01:58:07.946Z,52.37
2019-01-19T02:00:47.613Z,53.27
2019-01-19T02:03:28.227Z,53.27
2019-01-19T02:06:14.455Z,53.73
2019-01-19T02:08:46.020Z,52.73
2019-01-19T02:11:32.423Z,55.90
2019-01-19T02:14:15.871Z,51.47
2019-01-19T02:17:03.630Z,53.70
2019-01-19T02:19:40.611Z,83.77
2019-01-19T02:22:14.935Z,88.03
2019-01-19T02:25:11.679Z,79.50
2019-01-19T02:28:00.827Z,73.97
2019-01-19T02:30:41.151Z,72.93
2019-01-19T02:33:30.338Z,64.97
2019-01-19T02:36:21.149Z,55.27
2019-01-19T02:39:04.295Z,48.53
2019-01-19T02:41:44.839Z,46.43
2019-01-19T02:44:16.350Z,42.73
2019-01-19T02:47:14.990Z,44.40
2019-01-19T02:49:58.317Z,44.77
2019-01-19T02:52:47.590Z,42.57
2019-01-19T02:55:35.536Z,42.63
2019-01-19T02:58:30.775Z,45.60
2019-01-19T03:01:11.086Z,44.70
2019-01-19T03:04:07.811Z,44.13
2019-01-19T03:06:44.936Z,43.53
2019-01-19T03:09:21.987Z,41.00
2019-01-19T03:11:59.079Z,42.43
2019-01-19T03:14:47.092Z,41.80
2019-01-19T03:17:33.611Z,41.63
2019-01-19T03:20:11.067Z,45.13
2019-01-19T03:22:45.539Z,45.30
2019-01-19T03:25:51.680Z,47.00
2019-01-19T03:28:39.619Z,43.80
2019-01-19T03:31:25.979Z,43.10
2019-01-19T03:34:18.626Z,39.20
2019-01-19T03:37:06.745Z,37.80
2019-01-19T03:40:11.032Z,39.70
2019-01-19T03:42:45.031Z,40.43
2019-01-19T03:45:16.536Z,39.20
2019-01-19T03:47:59.621Z,35.10
2019-01-19T03:50:39.713Z,38.83
2019-01-19T03:53:20.847Z,40.40
2019-01-19T03:55:54.877Z,39.00
2019-01-19T03:58:29.076Z,39.10
2019-01-19T04:01:06.591Z,41.53
2019-01-19T04:03:46.481Z,42.43
2019-01-19T04:06:18.318Z,44.23
2019-01-19T04:09:10.598Z,42.33
2019-01-19T04:12:10.192Z,44.87
2019-01-19T04:14:59.375Z,43.90
2019-01-19T04:17:48.091Z,48.20
2019-01-19T04:20:52.668Z,43.40
2019-01-19T04:23:21.092Z,43.07
2019-01-19T04:25:52.819Z,44.07
2019-01-19T04:28:21.893Z,45.10
2019-01-19T04:30:50.363Z,43.20
2019-01-19T04:33:18.773Z,42.87
2019-01-19T04:35:47.188Z,43.80
2019-01-19T04:38:15.623Z,43.37
2019-01-19T04:40:44.070Z,40.43
2019-01-19T04:43:12.464Z,40.60
2019-01-19T04:45:40.873Z,42.47
2019-01-19T04:48:09.403Z,41.03
2019-01-19T04:50:37.800Z,36.60
2019-01-19T04:53:06.451Z,40.43
2019-01-19T04:55:34.880Z,39.17
2019-01-19T04:58:03.300Z,37.00
2019-01-19T05:00:31.725Z,38.50
2019-01-19T05:03:00.142Z,38.97
2019-01-19T05:05:28.588Z,40.83
2019-01-19T05:07:57.005Z,39.03
2019-01-19T05:10:25.442Z,37.83
2019-01-19T05:12:53.873Z,37.10
2019-01-19T05:15:22.530Z,38.63
2019-01-19T05:17:51.120Z,37.37
2019-01-19T05:20:19.545Z,37.97
2019-01-19T05:22:47.958Z,33.17
2019-01-19T05:25:16.379Z,35.63
2019-01-19T05:27:44.796Z,34.93
2019-01-19T05:30:18.089Z,34.23
2019-01-19T05:32:46.652Z,37.40
2019-01-19T05:35:15.419Z,35.30
2019-01-19T05:37:43.859Z,38.30
2019-01-19T05:40:13.012Z,37.67
2019-01-19T05:42:41.420Z,37.17
2019-01-19T05:45:11.993Z,36.97
2019-01-19T05:47:40.471Z,36.60
2019-01-19T05:50:17.539Z,37.50
2019-01-19T05:52:46.189Z,34.93
2019-01-19T05:55:14.699Z,33.83
2019-01-19T05:57:43.198Z,34.60
2019-01-19T06:00:20.048Z,35.37
2019-01-19T06:02:48.455Z,35.40
2019-01-19T06:05:16.861Z,35.63
2019-01-19T06:07:45.298Z,36.70
2019-01-19T06:10:15.663Z,37.00
2019-01-19T06:12:44.257Z,36.00
2019-01-19T06:15:14.980Z,33.50
2019-01-19T06:17:43.497Z,35.77
2019-01-19T06:20:14.443Z,35.97
2019-01-19T06:22:42.860Z,33.90
2019-01-19T06:25:15.465Z,36.67
2019-01-19T06:27:43.959Z,37.10
2019-01-19T06:30:17.952Z,34.30
2019-01-19T06:32:46.726Z,33.93
2019-01-19T06:35:15.188Z,35.00
2019-01-19T06:37:43.611Z,34.23
2019-01-19T06:40:14.360Z,33.90
2019-01-19T06:42:42.808Z,32.87
2019-01-19T06:45:14.248Z,35.43
2019-01-19T06:47:42.649Z,35.60
2019-01-19T06:50:16.144Z,36.17
2019-01-19T06:52:44.612Z,35.87
2019-01-19T06:55:15.860Z,35.53
2019-01-19T06:57:44.516Z,38.27
2019-01-19T07:00:17.556Z,39.07
2019-01-19T07:02:46.099Z,35.77
2019-01-19T07:05:14.851Z,36.07
2019-01-19T07:07:43.319Z,34.67
2019-01-19T07:10:17.167Z,34.23
2019-01-19T07:12:45.735Z,35.00
2019-01-19T07:15:14.520Z,36.00
2019-01-19T07:17:42.938Z,36.07
2019-01-19T07:20:16.715Z,35.40
2019-01-19T07:22:45.196Z,39.67
2019-01-19T07:25:14.103Z,39.50
2019-01-19T07:27:42.516Z,37.10
2019-01-19T07:30:13.768Z,38.30
2019-01-19T07:32:42.222Z,37.37
2019-01-19T07:35:10.727Z,37.47
2019-01-19T07:37:39.133Z,36.57
2019-01-19T07:40:15.734Z,37.57
2019-01-19T07:42:44.703Z,37.10
2019-01-19T07:45:14.748Z,37.17
2019-01-19T07:47:43.904Z,38.97
2019-01-19T07:50:14.453Z,38.00
2019-01-19T07:52:42.976Z,39.17
2019-01-19T07:55:13.539Z,39.03
2019-01-19T07:57:42.066Z,40.60
2019-01-19T08:00:16.235Z,39.63
2019-01-19T08:02:44.643Z,43.23
2019-01-19T08:05:13.155Z,41.63
2019-01-19T08:07:41.584Z,40.53
2019-01-19T08:10:13.020Z,39.90
2019-01-19T08:12:41.504Z,38.97
2019-01-19T08:15:13.031Z,38.47
2019-01-19T08:17:41.524Z,42.00
2019-01-19T08:20:12.507Z,42.90
2019-01-19T08:22:40.934Z,44.40
2019-01-19T08:25:11.175Z,44.00
2019-01-19T08:27:39.607Z,42.13
2019-01-19T08:30:16.773Z,43.20
2019-01-19T08:32:45.211Z,45.03
2019-01-19T08:35:15.275Z,46.83
2019-01-19T08:37:43.872Z,48.67
2019-01-19T08:40:15.548Z,48.37
2019-01-19T08:42:44.523Z,49.40
2019-01-19T08:45:13.290Z,47.33
2019-01-19T08:47:41.700Z,50.70
2019-01-19T08:50:10.975Z,51.43
2019-01-19T08:52:39.420Z,52.00
2019-01-19T08:55:09.063Z,51.80
2019-01-19T08:57:37.499Z,52.60
2019-01-19T09:00:17.152Z,53.33
2019-01-19T09:02:45.656Z,55.63
2019-01-19T09:05:14.081Z,54.33
2019-01-19T09:07:42.611Z,54.70
2019-01-19T09:10:16.027Z,56.60
2019-01-19T09:12:44.484Z,59.90
2019-01-19T09:15:18.043Z,60.77
2019-01-19T09:17:46.606Z,61.50
2019-01-19T09:20:16.516Z,65.67
2019-01-19T09:22:46.731Z,63.87
2019-01-19T09:25:15.935Z,65.80
2019-01-19T09:27:44.347Z,64.97
2019-01-19T09:30:21.108Z,67.00
2019-01-19T09:32:49.757Z,66.20
2019-01-19T09:35:18.642Z,70.33
2019-01-19T09:37:47.148Z,69.90
2019-01-19T09:40:18.950Z,71.43
2019-01-19T09:42:47.456Z,70.97
2019-01-19T09:45:17.552Z,70.07
2019-01-19T09:47:46.019Z,69.77
2019-01-19T09:50:16.020Z,73.60
2019-01-19T09:52:44.541Z,70.97
2019-01-19T09:55:13.647Z,71.67
2019-01-19T09:57:42.230Z,73.10
2019-01-19T10:00:19.382Z,73.63
2019-01-19T10:02:47.817Z,77.10
2019-01-19T10:05:19.088Z,76.73
2019-01-19T10:07:48.583Z,75.57
2019-01-19T10:10:17.290Z,74.53
2019-01-19T10:12:45.779Z,78.37
2019-01-19T10:15:16.470Z,78.37
2019-01-19T10:17:44.872Z,79.10
2019-01-19T10:20:18.678Z,79.67
2019-01-19T10:22:47.115Z,78.73
2019-01-19T10:25:16.458Z,80.13
2019-01-19T10:27:45.032Z,78.07
2019-01-19T10:30:21.423Z,81.67
2019-01-19T10:32:50.015Z,80.23
2019-01-19T10:35:18.398Z,84.90
2019-01-19T10:37:46.944Z,79.93
2019-01-19T10:40:16.839Z,78.10
2019-01-19T10:42:45.247Z,80.33
2019-01-19T10:45:18.759Z,84.80
2019-01-19T10:47:47.203Z,83.87
2019-01-19T10:50:17.552Z,81.67
2019-01-19T10:52:46.532Z,78.43
2019-01-19T10:55:17.568Z,78.10
2019-01-19T10:57:46.007Z,79.53
2019-01-19T11:00:25.879Z,86.23
2019-01-19T11:02:54.959Z,78.40
2019-01-19T11:05:23.526Z,79.73
2019-01-19T11:07:52.131Z,87.20
2019-01-19T11:10:23.144Z,83.30
2019-01-19T11:12:51.663Z,79.27
2019-01-19T11:15:20.328Z,82.03
2019-01-19T11:17:48.772Z,81.50
2019-01-19T11:20:22.003Z,79.70
2019-01-19T11:22:50.484Z,64.80
2019-01-19T11:25:18.987Z,80.37
2019-01-19T11:27:47.419Z,74.93
2019-01-19T11:30:21.167Z,68.43
2019-01-19T11:32:49.661Z,72.07
2019-01-19T11:35:18.387Z,72.60
2019-01-19T11:37:46.841Z,70.77
2019-01-19T11:40:18.036Z,54.17
2019-01-19T11:42:46.835Z,60.13
2019-01-19T11:45:23.067Z,68.63
2019-01-19T11:47:51.519Z,68.23
2019-01-19T11:50:20.547Z,68.60
2019-01-19T11:52:49.056Z,47.20
2019-01-19T11:55:19.182Z,49.57
2019-01-19T11:57:52.848Z,56.63
2019-01-19T12:00:24.354Z,50.57
2019-01-19T12:02:52.775Z,63.03
2019-01-19T12:05:21.195Z,62.77
2019-01-19T12:07:49.724Z,62.10
2019-01-19T12:10:23.531Z,63.10
2019-01-19T12:12:51.964Z,58.83
2019-01-19T12:15:20.555Z,58.10
2019-01-19T12:17:49.068Z,57.07
2019-01-19T12:20:23.138Z,53.03
2019-01-19T12:22:51.705Z,56.40
2019-01-19T12:25:24.709Z,53.60
2019-01-19T12:27:53.631Z,51.40
2019-01-19T12:30:27.441Z,40.03
2019-01-19T12:32:56.020Z,49.40
2019-01-19T12:35:24.656Z,33.43
2019-01-19T12:37:53.240Z,37.53
2019-01-19T12:40:24.052Z,42.70
2019-01-19T12:42:58.139Z,44.43
2019-01-19T12:45:29.578Z,46.40
2019-01-19T12:47:57.992Z,42.87
2019-01-19T12:50:27.571Z,48.47
2019-01-19T12:52:56.005Z,46.07
2019-01-19T12:55:24.435Z,29.13
2019-01-19T12:57:52.843Z,37.17
2019-01-19T13:00:28.258Z,41.43
2019-01-19T13:02:57.144Z,39.97
2019-01-19T13:05:31.171Z,34.27
2019-01-19T13:07:59.644Z,29.40
2019-01-19T13:10:31.121Z,31.90
2019-01-19T13:13:00.395Z,35.27
2019-01-19T13:15:34.486Z,34.33
2019-01-19T13:18:22.222Z,35.83
2019-01-19T13:21:15.804Z,37.10
2019-01-19T13:23:47.316Z,25.63
2019-01-19T13:26:30.809Z,28.87
2019-01-19T13:29:20.019Z,27.67
2019-01-19T13:32:00.280Z,32.10
2019-01-19T13:34:34.713Z,31.57
2019-01-19T13:37:08.948Z,30.77
2019-01-19T13:40:07.195Z,31.53
2019-01-19T13:42:43.940Z,29.70
2019-01-19T13:45:24.080Z,26.40
2019-01-19T13:48:04.004Z,27.53
2019-01-19T13:50:38.553Z,29.07
2019-01-19T13:53:30.860Z,29.77
2019-01-19T13:56:20.025Z,28.97
2019-01-19T13:58:57.411Z,27.10
2019-01-19T14:01:28.988Z,28.67
2019-01-19T14:04:00.495Z,28.53
2019-01-19T14:06:35.776Z,28.70
2019-01-19T14:09:10.260Z,29.97
2019-01-19T14:11:50.516Z,27.40
2019-01-19T14:14:27.979Z,30.40
2019-01-19T14:17:16.636Z,32.53
2019-01-19T14:19:56.883Z,29.47
2019-01-19T14:22:36.864Z,31.17
2019-01-19T14:25:24.892Z,31.23
2019-01-19T14:27:56.398Z,33.07
2019-01-19T14:30:27.864Z,32.80
2019-01-19T14:32:59.422Z,32.03
2019-01-19T14:35:45.086Z,29.80
2019-01-19T14:38:38.472Z,30.47
2019-01-19T14:41:27.932Z,29.60
2019-01-19T14:43:59.432Z,30.13
2019-01-19T14:46:48.568Z,29.90
2019-01-19T14:49:32.032Z,30.23
2019-01-19T14:52:30.375Z,29.00
2019-01-19T14:55:19.428Z,28.30
2019-01-19T14:57:54.064Z,30.13
2019-01-19T15:00:40.347Z,29.97
2019-01-19T15:03:26.627Z,31.03
2019-01-19T15:06:09.818Z,28.70
2019-01-19T15:08:41.335Z,29.00
2019-01-19T15:11:29.355Z,29.90
2019-01-19T15:14:03.428Z,30.63
2019-01-19T15:16:46.408Z,29.97
2019-01-19T15:19:44.735Z,30.30
2019-01-19T15:22:22.163Z,32.33
2019-01-19T15:24:56.665Z,31.33
2019-01-19T15:27:33.975Z,32.37
2019-01-19T15:30:20.444Z,31.10
2019-01-19T15:32:54.422Z,31.17
2019-01-19T15:35:31.733Z,31.17
2019-01-19T15:38:22.395Z,34.20
2019-01-19T15:41:08.544Z,34.80
2019-01-19T15:43:45.904Z,30.43
2019-01-19T15:46:19.943Z,34.20
2019-01-19T15:49:00.228Z,34.10
2019-01-19T15:51:47.836Z,35.53
2019-01-19T15:54:28.476Z,35.63
2019-01-19T15:57:11.875Z,35.33
2019-01-19T16:00:02.615Z,37.90
2019-01-19T16:03:08.447Z,37.03
2019-01-19T16:05:57.855Z,38.13
2019-01-19T16:08:46.972Z,37.33
2019-01-19T16:11:27.104Z,38.40
2019-01-19T16:13:58.688Z,37.93
2019-01-19T16:16:55.471Z,38.57
2019-01-19T16:19:50.823Z,37.43
2019-01-19T16:22:33.563Z,36.80
2019-01-19T16:25:37.872Z,38.27
2019-01-19T16:28:28.541Z,39.10
2019-01-19T16:31:14.870Z,44.57
2019-01-19T16:34:00.756Z,47.73
2019-01-19T16:36:40.979Z,65.90
2019-01-19T16:39:45.073Z,280.70
2019-01-19T16:42:41.977Z,125.63
2019-01-19T16:45:28.455Z,65.40
2019-01-19T16:48:05.537Z,50.17
2019-01-19T16:50:46.049Z,45.57
2019-01-19T16:53:20.081Z,43.03
2019-01-19T16:56:12.211Z,41.07
2019-01-19T16:58:52.268Z,39.10
2019-01-19T17:01:41.692Z,40.57
2019-01-19T17:04:21.934Z,40.80
2019-01-19T17:07:28.051Z,42.00
2019-01-19T17:10:08.324Z,41.67
2019-01-19T17:12:45.734Z,42.60
2019-01-19T17:15:20.047Z,42.83
2019-01-19T17:17:51.611Z,50.10
2019-01-19T17:20:37.929Z,57.57
2019-01-19T17:23:14.920Z,55.00
2019-01-19T17:26:15.005Z,50.30
2019-01-19T17:29:01.371Z,48.13
2019-01-19T17:31:38.576Z,43.87
2019-01-19T17:34:27.743Z,42.50
2019-01-19T17:37:04.924Z,42.97
2019-01-19T17:40:02.056Z,41.40
2019-01-19T17:42:45.637Z,43.07
2019-01-19T17:45:17.153Z,42.13
2019-01-19T17:48:12.447Z,41.77
2019-01-19T17:51:14.000Z,40.87
2019-01-19T17:54:01.807Z,40.57
2019-01-19T17:56:36.061Z,44.77
2019-01-19T17:59:26.890Z,43.83
2019-01-19T18:02:16.286Z,44.73
2019-01-19T18:05:05.795Z,39.87
2019-01-19T18:08:00.908Z,40.37
2019-01-19T18:10:56.175Z,40.77
2019-01-19T18:14:00.321Z,39.80
2019-01-19T18:16:50.953Z,39.93
2019-01-19T18:19:46.123Z,41.87
2019-01-19T18:22:20.423Z,44.70
2019-01-19T18:25:15.588Z,45.40
2019-01-19T18:27:48.094Z,43.50
2019-01-19T18:30:38.369Z,41.60
2019-01-19T18:33:09.868Z,40.77
2019-01-19T18:35:57.631Z,43.33
2019-01-19T18:38:35.071Z,40.37
2019-01-19T18:41:17.986Z,40.90
2019-01-19T18:43:58.235Z,42.00
2019-01-19T18:46:47.824Z,41.73
2019-01-19T18:49:37.240Z,43.47
2019-01-19T18:52:11.572Z,43.87
2019-01-19T18:54:43.052Z,43.60
2019-01-19T18:57:38.328Z,43.30
2019-01-19T19:00:27.439Z,42.23
2019-01-19T19:03:16.540Z,42.93
2019-01-19T19:05:53.592Z,45.30
2019-01-19T19:08:25.093Z,44.07
2019-01-19T19:10:56.619Z,47.00
2019-01-19T19:13:30.944Z,45.67
2019-01-19T19:16:20.544Z,44.83
2019-01-19T19:19:03.763Z,44.87
2019-01-19T19:21:47.108Z,44.87
2019-01-19T19:24:18.596Z,44.27
2019-01-19T19:26:53.193Z,45.43
2019-01-19T19:29:41.010Z,46.60
2019-01-19T19:32:30.508Z,45.73
2019-01-19T19:35:19.832Z,45.70
2019-01-19T19:37:51.341Z,45.03
2019-01-19T19:40:37.731Z,45.60
2019-01-19T19:43:24.124Z,46.83
2019-01-19T19:46:01.292Z,45.23
2019-01-19T19:48:50.336Z,46.23
2019-01-19T19:51:21.854Z,45.80
2019-01-19T19:53:50.504Z,44.93
2019-01-19T19:56:17.852Z,46.63
2019-01-19T19:58:46.284Z,46.40
2019-01-19T20:01:14.698Z,47.87
2019-01-19T20:03:43.100Z,46.70
2019-01-19T20:06:11.620Z,49.43
2019-01-19T20:08:40.032Z,47.50
2019-01-19T20:11:08.570Z,49.93
2019-01-19T20:13:37.027Z,49.40
2019-01-19T20:16:05.543Z,46.17
2019-01-19T20:18:33.985Z,47.40
2019-01-19T20:21:02.440Z,46.63
2019-01-19T20:23:30.852Z,47.90
2019-01-19T20:25:59.277Z,45.57
2019-01-19T20:28:27.707Z,48.37
2019-01-19T20:30:56.124Z,49.03
2019-01-19T20:33:24.568Z,48.97
2019-01-19T20:35:53.023Z,53.27
2019-01-19T20:38:21.449Z,49.10
2019-01-19T20:40:49.895Z,51.20
2019-01-19T20:43:18.295Z,49.27
2019-01-19T20:45:47.871Z,49.33
2019-01-19T20:48:16.415Z,48.40
2019-01-19T20:50:44.856Z,48.83
2019-01-19T20:53:13.324Z,49.43
2019-01-19T20:55:41.776Z,46.97
2019-01-19T20:58:10.275Z,47.47
2019-01-19T21:00:38.782Z,48.37
2019-01-19T21:03:07.229Z,47.67
2019-01-19T21:05:35.661Z,50.27
2019-01-19T21:08:04.157Z,70.17
2019-01-19T21:10:32.697Z,71.67
2019-01-19T21:13:01.232Z,86.97
2019-01-19T21:15:29.636Z,86.00
2019-01-19T21:17:58.071Z,93.17
2019-01-19T21:20:26.502Z,98.67
2019-01-19T21:22:54.987Z,82.70
2019-01-19T21:25:23.433Z,81.50
2019-01-19T21:27:52.064Z,87.43
2019-01-19T21:30:20.548Z,80.90
2019-01-19T21:32:49.016Z,83.90
2019-01-19T21:35:17.459Z,66.23
2019-01-19T21:37:45.879Z,66.20
2019-01-19T21:40:15.255Z,62.53
2019-01-19T21:42:43.671Z,55.20
2019-01-19T21:45:15.151Z,65.13
2019-01-19T21:47:44.265Z,64.23
2019-01-19T21:50:13.245Z,65.73
2019-01-19T21:52:41.660Z,65.20
2019-01-19T21:55:10.469Z,59.03
2019-01-19T21:57:38.923Z,60.20
2019-01-19T22:00:16.076Z,57.60
2019-01-19T22:02:44.487Z,52.83
2019-01-19T22:05:13.166Z,52.70
2019-01-19T22:07:41.595Z,51.90
2019-01-19T22:10:15.711Z,51.67
2019-01-19T22:12:44.231Z,51.33
2019-01-19T22:15:14.900Z,53.83
2019-01-19T22:17:43.552Z,55.97
2019-01-19T22:20:14.362Z,52.00
2019-01-19T22:22:42.793Z,52.47
2019-01-19T22:25:11.398Z,51.90
2019-01-19T22:27:41.628Z,50.37
2019-01-19T22:30:19.439Z,50.23
2019-01-19T22:32:49.573Z,50.43
2019-01-19T22:35:18.067Z,49.40
2019-01-19T22:37:46.570Z,48.30
2019-01-19T22:40:18.699Z,49.77
2019-01-19T22:42:47.732Z,48.97
2019-01-19T22:45:19.518Z,48.37
2019-01-19T22:47:47.943Z,49.10
2019-01-19T22:50:19.429Z,48.80
2019-01-19T22:52:47.955Z,48.80
2019-01-19T22:55:16.613Z,48.87
2019-01-19T22:57:45.107Z,47.50
2019-01-19T23:00:39.151Z,46.23
2019-01-19T23:03:07.765Z,48.50
2019-01-19T23:05:36.408Z,45.00
2019-01-19T23:08:05.084Z,45.23
2019-01-19T23:10:33.515Z,44.53
2019-01-19T23:13:02.012Z,43.50
2019-01-19T23:15:30.424Z,43.30
2019-01-19T23:17:59.008Z,42.60
2019-01-19T23:20:27.461Z,42.00
2019-01-19T23:22:56.151Z,42.03
2019-01-19T23:25:24.623Z,45.47
2019-01-19T23:27:53.189Z,43.10
2019-01-19T23:30:21.603Z,43.03
2019-01-19T23:32:50.056Z,41.33
2019-01-19T23:35:18.467Z,42.00
2019-01-19T23:37:46.889Z,42.53
2019-01-19T23:40:15.399Z,42.63
2019-01-19T23:42:47.334Z,41.83
2019-01-19T23:45:14.819Z,41.70
2019-01-19T23:47:43.330Z,42.93
2019-01-19T23:50:12.081Z,42.53
2019-01-19T23:52:40.574Z,41.90
2019-01-19T23:55:09.092Z,40.83
2019-01-19T23:57:37.628Z,40.47
